Time;durP1;ratioP1;P1;durP2;ratioP2;P2;SDS_P1;SDS_P2;PMS_P1;PMS_P2;Temp;Humidity;BMP_temperature;BMP_pressure;BME280_temperature;BME280_humidity;BME280_pressure;Samples;Min_cycle;Max_cycle;Signal;HPM_P1;HPM_P2
2022/09/14 00:00:41;;;;;;;11.63;2.65;;;15.30;99.90;;;;;;5075860;28;20142;-72
2022/09/14 00:03:07;;;;;;;9.95;2.40;;;15.30;99.90;;;;;;5074396;28;20028;-70
2022/09/14 00:05:35;;;;;;;12.50;2.97;;;15.30;99.90;;;;;;5085928;28;20125;-71
2022/09/14 00:08:01;;;;;;;8.65;2.72;;;15.30;99.90;;;;;;5070179;28;20044;-70
2022/09/14 00:10:27;;;;;;;8.32;2.78;;;15.30;99.90;;;;;;5073607;28;20130;-71
2022/09/14 00:12:53;;;;;;;9.02;2.78;;;15.30;99.90;;;;;;5070896;28;20062;-71
2022/09/14 00:15:18;;;;;;;10.93;2.70;;;15.30;99.90;;;;;;5069380;28;20631;-71
2022/09/14 00:17:44;;;;;;;11.15;2.88;;;15.20;99.90;;;;;;5072240;28;20475;-71
2022/09/14 00:20:10;;;;;;;6.68;2.72;;;15.30;99.90;;;;;;5073286;28;20471;-72
2022/09/14 00:22:36;;;;;;;8.70;2.58;;;15.30;99.90;;;;;;5080782;28;20106;-71
2022/09/14 00:25:02;;;;;;;8.80;2.53;;;15.20;99.90;;;;;;5069880;28;20478;-71
2022/09/14 00:27:28;;;;;;;6.45;2.20;;;15.20;99.90;;;;;;5068543;28;20441;-72
2022/09/14 00:29:53;;;;;;;7.85;2.70;;;15.20;99.90;;;;;;5081866;28;20040;-71
2022/09/14 00:32:19;;;;;;;8.85;2.80;;;15.20;99.90;;;;;;5071785;28;20028;-71
2022/09/14 00:34:45;;;;;;;9.55;2.75;;;15.20;99.90;;;;;;5079815;28;20040;-71
2022/09/14 00:37:11;;;;;;;9.43;2.95;;;15.20;99.90;;;;;;5083738;28;20131;-71
2022/09/14 00:39:36;;;;;;;7.35;3.13;;;15.20;99.90;;;;;;5086876;28;20127;-71
2022/09/14 00:42:04;;;;;;;7.88;2.80;;;15.20;99.90;;;;;;5102417;28;20044;-71
2022/09/14 00:44:30;;;;;;;9.00;3.05;;;15.20;99.90;;;;;;5086643;28;20078;-71
2022/09/14 00:46:58;;;;;;;9.23;2.95;;;15.20;99.90;;;;;;5101260;28;20052;-70
2022/09/14 00:49:35;;;;;;;10.07;2.75;;;15.20;99.90;;;;;;5082067;28;20119;-70
2022/09/14 00:52:22;;;;;;;5.82;2.40;;;15.10;99.90;;;;;;5089204;28;20063;-70
2022/09/14 00:54:53;;;;;;;11.80;2.90;;;15.20;99.90;;;;;;5079093;28;20032;-71
2022/09/14 00:57:20;;;;;;;7.30;2.53;;;15.20;99.90;;;;;;5087979;28;20063;-71
2022/09/14 00:59:50;;;;;;;8.90;2.60;;;15.20;99.90;;;;;;5082738;28;20401;-70
2022/09/14 01:02:17;;;;;;;5.13;2.35;;;15.20;99.90;;;;;;5074715;28;20032;-71
2022/09/14 01:04:43;;;;;;;4.90;2.10;;;15.20;99.90;;;;;;5083040;28;20028;-71
2022/09/14 01:07:37;;;;;;;7.05;2.78;;;15.20;99.90;;;;;;5081021;28;20028;-70
2022/09/14 01:10:28;;;;;;;8.05;2.78;;;15.20;99.90;;;;;;5080096;28;20130;-71
2022/09/14 01:13:10;;;;;;;7.53;2.95;;;15.20;99.90;;;;;;5080957;28;20819;-71
2022/09/14 01:15:57;;;;;;;7.25;2.90;;;15.20;99.90;;;;;;5067521;28;20028;-72
2022/09/14 01:18:28;;;;;;;9.65;2.90;;;15.20;99.90;;;;;;5087100;28;20567;-71
2022/09/14 01:21:14;;;;;;;8.68;2.67;;;15.20;99.90;;;;;;5078187;28;20036;-71
2022/09/14 01:23:42;;;;;;;11.20;3.00;;;15.20;99.90;;;;;;5068570;28;22305;-70
2022/09/14 01:26:30;;;;;;;6.75;2.75;;;15.30;99.90;;;;;;5073935;28;20036;-72
2022/09/14 01:29:20;;;;;;;6.68;3.50;;;15.30;99.90;;;;;;5083833;28;20032;-70
2022/09/14 01:32:14;;;;;;;8.73;2.97;;;15.30;99.90;;;;;;5069146;28;20029;-71
2022/09/14 01:34:49;;;;;;;8.50;3.65;;;15.20;99.90;;;;;;5079985;28;20028;-70
2022/09/14 01:37:21;;;;;;;9.15;3.45;;;15.30;99.90;;;;;;5089001;28;20550;-72
2022/09/14 01:39:52;;;;;;;9.27;3.45;;;15.20;99.90;;;;;;5076024;28;20165;-71
2022/09/14 01:42:21;;;;;;;6.72;3.15;;;15.20;99.90;;;;;;5067403;28;20036;-71
2022/09/14 01:44:51;;;;;;;6.15;3.35;;;15.20;99.90;;;;;;5076673;28;20047;-71
2022/09/14 01:47:26;;;;;;;8.55;3.67;;;15.30;99.90;;;;;;5085897;28;20052;-71
2022/09/14 01:49:57;;;;;;;7.18;3.22;;;15.20;99.90;;;;;;5091242;28;20796;-70
2022/09/14 01:52:32;;;;;;;9.38;3.90;;;15.20;99.90;;;;;;5103600;27;20118;-70
2022/09/14 01:55:21;;;;;;;5.13;3.03;;;15.20;99.90;;;;;;5117588;27;20047;-71
2022/09/14 01:58:07;;;;;;;6.70;3.72;;;15.30;99.90;;;;;;5093055;28;20516;-70
2022/09/14 02:00:34;;;;;;;7.75;3.65;;;15.30;99.90;;;;;;5090735;28;20032;-71
2022/09/14 02:03:09;;;;;;;9.38;3.63;;;15.30;99.90;;;;;;5074782;28;20061;-71
2022/09/14 02:05:43;;;;;;;6.18;3.40;;;15.30;99.90;;;;;;5088580;28;20043;-70
2022/09/14 02:08:09;;;;;;;8.05;3.40;;;15.30;99.90;;;;;;5088143;28;20067;-71
2022/09/14 02:10:34;;;;;;;7.60;3.80;;;15.30;99.90;;;;;;5097121;28;20070;-71
2022/09/14 02:13:01;;;;;;;22.67;3.45;;;15.30;99.90;;;;;;5089098;28;20478;-70
2022/09/14 02:15:26;;;;;;;9.02;3.35;;;15.30;99.90;;;;;;5088693;28;20031;-71
2022/09/14 02:17:53;;;;;;;8.48;4.38;;;15.30;99.90;;;;;;5088791;28;20032;-71
2022/09/14 02:20:25;;;;;;;7.90;3.72;;;15.30;99.90;;;;;;5108627;28;20850;-71
2022/09/14 02:22:51;;;;;;;9.75;3.70;;;15.30;99.90;;;;;;5091642;28;20482;-71
2022/09/14 02:25:19;;;;;;;8.77;3.90;;;15.40;99.90;;;;;;5087750;28;20119;-71
2022/09/14 02:27:46;;;;;;;8.48;3.40;;;15.40;99.90;;;;;;5098644;28;20048;-70
2022/09/14 02:30:12;;;;;;;8.05;3.65;;;15.40;99.90;;;;;;5097421;28;20085;-70
2022/09/14 02:33:07;;;;;;;7.07;3.47;;;15.40;99.90;;;;;;5099734;28;20092;-70
2022/09/14 02:35:52;;;;;;;8.18;3.42;;;15.40;99.90;;;;;;5120067;27;20715;-71
2022/09/14 02:38:57;;;;;;;8.30;3.83;;;15.40;99.90;;;;;;5109643;28;20038;-71
2022/09/14 02:41:48;;;;;;;10.98;3.53;;;15.40;99.90;;;;;;5105543;28;20115;-71
2022/09/14 02:44:49;;;;;;;8.10;3.70;;;15.40;99.90;;;;;;5104779;27;20035;-71
2022/09/14 02:47:22;;;;;;;6.75;3.33;;;15.30;99.90;;;;;;5092415;28;20043;-71
2022/09/14 02:49:58;;;;;;;7.78;3.30;;;15.40;99.90;;;;;;5083731;28;20056;-71
2022/09/14 02:52:32;;;;;;;7.18;3.67;;;15.40;99.90;;;;;;5091765;28;20058;-71
2022/09/14 02:55:09;;;;;;;8.35;3.30;;;15.40;99.90;;;;;;5118178;27;20508;-70
2022/09/14 02:58:04;;;;;;;7.53;3.13;;;15.40;99.90;;;;;;5099593;27;20707;-70
2022/09/14 03:00:34;;;;;;;5.72;3.15;;;15.40;99.90;;;;;;5108435;28;20031;-70
2022/09/14 03:03:00;;;;;;;7.68;3.45;;;15.40;99.90;;;;;;5115727;27;20031;-70
2022/09/14 03:05:26;;;;;;;8.23;3.53;;;15.40;99.90;;;;;;5093321;28;20392;-70
2022/09/14 03:07:51;;;;;;;8.15;3.50;;;15.40;99.90;;;;;;5106560;27;20401;-71
2022/09/14 03:10:17;;;;;;;8.00;3.55;;;15.40;99.90;;;;;;5102900;27;20103;-71
2022/09/14 03:12:43;;;;;;;7.30;3.17;;;15.40;99.90;;;;;;5098654;27;20042;-70
2022/09/14 03:15:09;;;;;;;6.38;3.30;;;15.40;99.90;;;;;;5122360;27;20067;-71
2022/09/14 03:17:34;;;;;;;8.63;3.72;;;15.40;99.90;;;;;;5103387;27;20404;-70
2022/09/14 03:20:00;;;;;;;7.07;3.70;;;15.40;99.90;;;;;;5113275;27;20062;-71
2022/09/14 03:22:26;;;;;;;7.28;3.58;;;15.40;99.90;;;;;;5073930;28;20032;-71
2022/09/14 03:24:52;;;;;;;5.47;3.50;;;15.40;99.90;;;;;;5112544;27;20039;-71
2022/09/14 03:27:17;;;;;;;9.80;3.30;;;15.40;99.90;;;;;;5125263;27;20461;-70
2022/09/14 03:29:43;;;;;;;5.20;3.40;;;15.40;99.90;;;;;;5100856;27;20035;-71
2022/09/14 03:32:09;;;;;;;7.43;3.70;;;15.40;99.90;;;;;;5109406;27;20058;-71
2022/09/14 03:34:35;;;;;;;8.15;3.88;;;15.40;99.90;;;;;;5111933;27;20107;-71
2022/09/14 03:37:01;;;;;;;8.35;3.60;;;15.40;99.90;;;;;;5123674;27;20493;-71
2022/09/14 03:39:27;;;;;;;5.97;3.13;;;15.40;99.90;;;;;;5093848;28;20040;-71
2022/09/14 03:41:53;;;;;;;6.32;3.42;;;15.40;99.90;;;;;;5091092;28;20039;-71
2022/09/14 03:44:19;;;;;;;5.97;3.30;;;15.40;99.90;;;;;;5108436;28;20039;-70
2022/09/14 03:46:45;;;;;;;6.80;3.20;;;15.40;99.90;;;;;;5110140;28;20139;-71
2022/09/14 03:49:10;;;;;;;6.18;3.15;;;15.40;99.90;;;;;;5093113;28;20039;-71
2022/09/14 03:51:36;;;;;;;6.50;3.45;;;15.40;99.90;;;;;;5092338;27;20032;-71
2022/09/14 03:54:01;;;;;;;5.07;3.55;;;15.40;99.90;;;;;;5094601;28;20028;-70
2022/09/14 03:56:27;;;;;;;8.20;3.67;;;15.40;99.90;;;;;;5094723;28;20028;-71
2022/09/14 03:58:53;;;;;;;9.40;3.65;;;15.40;99.90;;;;;;5091289;28;20034;-70
2022/09/14 04:01:20;;;;;;;7.82;3.97;;;15.40;99.90;;;;;;5094782;28;20043;-71
2022/09/14 04:03:46;;;;;;;7.28;3.97;;;15.40;99.90;;;;;;5091518;28;20524;-71
2022/09/14 04:06:13;;;;;;;6.07;3.60;;;15.40;99.90;;;;;;5094946;28;20040;-71
2022/09/14 04:08:40;;;;;;;8.57;3.88;;;15.40;99.90;;;;;;5077781;27;20038;-71
2022/09/14 04:11:07;;;;;;;6.32;3.53;;;15.40;99.90;;;;;;5110806;28;20458;-71
2022/09/14 04:13:32;;;;;;;6.55;3.63;;;15.40;99.90;;;;;;5087026;28;20081;-70
2022/09/14 04:15:59;;;;;;;4.38;3.05;;;15.40;99.90;;;;;;5077819;28;20040;-71
2022/09/14 04:18:26;;;;;;;7.47;3.10;;;15.40;99.90;;;;;;5092504;28;20140;-71
2022/09/14 04:21:00;;;;;;;6.45;2.90;;;15.30;99.90;;;;;;5105181;28;20050;-72
2022/09/14 04:23:26;;;;;;;7.07;3.20;;;15.30;99.90;;;;;;5090544;28;20035;-71
2022/09/14 04:25:53;;;;;;;7.57;3.05;;;15.40;99.90;;;;;;5088635;27;20051;-71
2022/09/14 04:28:18;;;;;;;8.27;3.05;;;15.40;99.90;;;;;;5092115;28;20034;-70
2022/09/14 04:30:52;;;;;;;7.75;2.80;;;15.40;99.90;;;;;;5089937;28;20032;-71
2022/09/14 04:33:18;;;;;;;8.27;3.15;;;15.40;99.90;;;;;;5089168;28;20035;-71
2022/09/14 04:35:44;;;;;;;5.75;3.20;;;15.40;99.90;;;;;;5089337;28;20035;-70
2022/09/14 04:38:09;;;;;;;6.32;2.92;;;15.30;99.90;;;;;;5083309;28;20738;-71
2022/09/14 04:40:40;;;;;;;5.57;2.90;;;15.30;99.90;;;;;;5073283;28;20032;-71
2022/09/14 04:43:05;;;;;;;6.70;2.78;;;15.30;99.90;;;;;;5102728;27;20035;-71
2022/09/14 04:45:31;;;;;;;4.55;2.80;;;15.30;99.90;;;;;;5105833;28;20050;-70
2022/09/14 04:47:56;;;;;;;6.60;2.92;;;15.30;99.90;;;;;;5094081;27;20036;-71
2022/09/14 04:50:22;;;;;;;5.70;3.10;;;15.30;99.90;;;;;;5088150;28;20028;-71
2022/09/14 04:52:48;;;;;;;7.35;2.85;;;15.30;99.90;;;;;;5098119;27;20785;-72
2022/09/14 04:55:13;;;;;;;6.60;2.85;;;15.40;99.90;;;;;;5103382;28;20055;-71
2022/09/14 04:57:39;;;;;;;8.10;3.33;;;15.30;99.90;;;;;;5094439;28;20132;-70
2022/09/14 05:00:05;;;;;;;7.25;3.22;;;15.30;99.90;;;;;;5113751;27;20413;-71
2022/09/14 05:02:31;;;;;;;9.77;3.15;;;15.30;99.90;;;;;;5114639;27;20385;-71
2022/09/14 05:04:57;;;;;;;6.82;3.08;;;15.40;99.90;;;;;;5126916;27;20031;-71
2022/09/14 05:07:23;;;;;;;6.45;3.17;;;15.30;99.90;;;;;;5084697;28;20035;-71
2022/09/14 05:09:49;;;;;;;9.27;3.35;;;15.30;99.90;;;;;;5121961;27;20039;-72
2022/09/14 05:12:14;;;;;;;10.85;3.40;;;15.30;99.90;;;;;;5088100;28;20031;-71
2022/09/14 05:14:40;;;;;;;10.73;3.10;;;15.40;99.90;;;;;;5112375;27;20066;-71
2022/09/14 05:17:05;;;;;;;5.30;2.90;;;15.40;99.90;;;;;;5109455;28;20473;-70
2022/09/14 05:19:31;;;;;;;6.35;2.88;;;15.40;99.90;;;;;;5101594;27;20030;-69
2022/09/14 05:21:57;;;;;;;12.48;3.38;;;15.30;99.90;;;;;;5113634;27;20024;-70
2022/09/14 05:24:22;;;;;;;8.07;4.20;;;15.40;99.90;;;;;;5109358;27;20683;-70
2022/09/14 05:26:51;;;;;;;5.78;3.85;;;15.40;99.90;;;;;;5101242;27;20028;-69
2022/09/14 05:29:18;;;;;;;7.43;4.00;;;15.40;99.90;;;;;;5091425;27;20081;-69
2022/09/14 05:31:44;;;;;;;8.25;4.40;;;15.40;99.90;;;;;;5104642;28;20039;-69
2022/09/14 05:34:11;;;;;;;11.80;4.30;;;15.40;99.90;;;;;;5116485;27;20782;-69
2022/09/14 05:36:37;;;;;;;8.30;4.28;;;15.40;99.90;;;;;;5114289;27;20036;-69
2022/09/14 05:39:04;;;;;;;13.40;5.55;;;15.40;99.90;;;;;;5095814;28;20058;-69
2022/09/14 05:41:30;;;;;;;10.98;5.45;;;15.30;99.90;;;;;;5108813;27;20035;-69
2022/09/14 05:43:57;;;;;;;9.45;5.63;;;15.40;99.90;;;;;;5111648;27;20027;-70
2022/09/14 05:46:22;;;;;;;11.55;5.28;;;15.40;99.90;;;;;;5090504;28;20054;-69
2022/09/14 05:48:50;;;;;;;12.18;5.30;;;15.40;99.90;;;;;;5090825;28;20744;-69
2022/09/14 05:51:22;;;;;;;12.52;5.60;;;15.40;99.90;;;;;;5103774;27;20120;-69
2022/09/14 05:53:50;;;;;;;10.00;5.20;;;15.40;99.90;;;;;;5089885;28;20054;-70
2022/09/14 05:56:17;;;;;;;9.60;5.50;;;15.40;99.90;;;;;;5090100;28;20495;-69
2022/09/14 05:58:43;;;;;;;10.00;4.63;;;15.40;99.90;;;;;;5106246;27;20080;-69
2022/09/14 06:01:12;;;;;;;10.90;4.65;;;15.30;99.90;;;;;;5096405;27;20103;-70
2022/09/14 06:03:39;;;;;;;6.88;4.50;;;15.30;99.90;;;;;;5110140;27;20093;-69
2022/09/14 06:06:06;;;;;;;9.20;4.47;;;15.30;99.90;;;;;;5098334;27;20386;-69
2022/09/14 06:08:32;;;;;;;12.45;5.07;;;15.40;99.90;;;;;;5105273;27;20036;-69
2022/09/14 06:11:11;;;;;;;9.90;4.88;;;15.40;99.90;;;;;;5107376;27;20031;-69
2022/09/14 06:13:37;;;;;;;11.85;4.80;;;15.40;99.90;;;;;;5106222;27;20031;-69
2022/09/14 06:16:11;;;;;;;10.93;4.68;;;15.40;99.90;;;;;;5096270;28;20543;-70
2022/09/14 06:18:38;;;;;;;7.95;4.55;;;15.30;99.90;;;;;;5096619;27;20513;-69
2022/09/14 06:21:05;;;;;;;9.80;4.45;;;15.40;99.90;;;;;;5081634;28;20028;-69
2022/09/14 06:23:31;;;;;;;8.98;4.70;;;15.40;99.90;;;;;;5098310;28;20474;-69
2022/09/14 06:25:59;;;;;;;7.75;4.50;;;15.40;99.90;;;;;;5098547;28;20032;-68
2022/09/14 06:28:25;;;;;;;7.93;4.93;;;15.40;99.90;;;;;;5088334;28;20050;-68
2022/09/14 06:30:51;;;;;;;8.38;4.85;;;15.40;99.90;;;;;;5099793;28;20032;-69
2022/09/14 06:33:18;;;;;;;10.73;4.60;;;15.40;99.90;;;;;;5108994;28;20031;-69
2022/09/14 06:36:08;;;;;;;8.85;4.47;;;15.40;99.90;;;;;;5093848;28;20070;-69
2022/09/14 06:38:34;;;;;;;8.65;4.15;;;15.40;99.90;;;;;;5097842;28;20032;-69
2022/09/14 06:41:03;;;;;;;7.38;3.80;;;15.40;99.90;;;;;;5091298;28;20385;-69
2022/09/14 06:43:31;;;;;;;9.23;3.45;;;15.40;99.90;;;;;;5101361;28;20493;-70
2022/09/14 06:46:06;;;;;;;6.97;3.28;;;15.40;99.90;;;;;;5091276;28;20076;-69
2022/09/14 06:48:37;;;;;;;6.82;3.00;;;15.30;99.90;;;;;;5101690;28;20439;-70
2022/09/14 06:51:17;;;;;;;7.95;2.90;;;15.30;99.90;;;;;;5091242;28;20040;-69
2022/09/14 06:53:44;;;;;;;7.93;2.72;;;15.30;99.90;;;;;;5089262;28;20051;-70
2022/09/14 06:56:10;;;;;;;9.95;3.45;;;15.30;99.90;;;;;;5106856;28;20077;-70
2022/09/14 06:58:36;;;;;;;7.93;3.70;;;15.30;99.90;;;;;;5106533;28;20037;-68
2022/09/14 07:01:15;;;;;;;9.07;3.20;;;15.30;99.90;;;;;;5107130;28;20621;-70
2022/09/14 07:03:42;;;;;;;9.80;2.72;;;15.30;99.90;;;;;;5092858;28;20139;-70
2022/09/14 07:06:18;;;;;;;6.25;2.75;;;15.30;99.90;;;;;;5102930;28;20477;-69
2022/09/14 07:08:44;;;;;;;7.03;2.80;;;15.30;99.90;;;;;;5084535;28;20584;-70
2022/09/14 07:11:11;;;;;;;7.78;3.20;;;15.30;99.90;;;;;;5106349;28;20169;-69
2022/09/14 07:13:37;;;;;;;8.00;3.05;;;15.30;99.90;;;;;;5104274;28;20028;-70
2022/09/14 07:16:03;;;;;;;7.20;3.25;;;15.30;99.90;;;;;;5100890;28;20096;-70
2022/09/14 07:18:33;;;;;;;9.20;3.33;;;15.30;99.90;;;;;;5082334;28;20035;-70
2022/09/14 07:21:04;;;;;;;9.63;3.60;;;15.30;99.90;;;;;;5103324;28;20043;-69
2022/09/14 07:23:30;;;;;;;6.78;3.90;;;15.30;99.90;;;;;;5110919;28;20027;-69
2022/09/14 07:26:06;;;;;;;7.68;3.10;;;15.30;99.90;;;;;;5111072;28;20040;-70
2022/09/14 07:28:31;;;;;;;7.97;3.22;;;15.30;99.90;;;;;;5107373;28;20067;-69
2022/09/14 07:30:58;;;;;;;6.25;2.60;;;15.40;99.90;;;;;;5089857;28;20055;-70
2022/09/14 07:33:23;;;;;;;6.93;2.85;;;15.30;99.90;;;;;;5111225;28;20612;-69
2022/09/14 07:35:49;;;;;;;9.75;3.35;;;15.30;99.90;;;;;;5101602;28;20534;-70
2022/09/14 07:38:15;;;;;;;7.07;3.10;;;15.30;99.90;;;;;;5105936;28;20035;-70
2022/09/14 07:40:40;;;;;;;7.47;3.08;;;15.30;99.90;;;;;;5095153;28;20105;-70
2022/09/14 07:43:06;;;;;;;6.05;2.60;;;15.30;99.90;;;;;;5094233;28;20387;-70
2022/09/14 07:45:33;;;;;;;5.65;2.95;;;15.30;99.90;;;;;;5103713;28;20794;-70
2022/09/14 07:47:59;;;;;;;6.30;3.10;;;15.30;99.90;;;;;;5104602;27;20137;-70
2022/09/14 07:50:25;;;;;;;7.88;3.42;;;15.40;99.90;;;;;;5101404;28;20130;-69
2022/09/14 07:52:51;;;;;;;6.93;3.10;;;15.40;99.90;;;;;;5100531;27;20035;-70
2022/09/14 07:55:17;;;;;;;7.65;3.55;;;15.40;99.90;;;;;;5099413;27;20042;-70
2022/09/14 07:57:43;;;;;;;6.00;3.38;;;15.40;99.90;;;;;;5101398;28;20039;-70
2022/09/14 08:00:10;;;;;;;8.80;3.50;;;15.40;99.90;;;;;;5107629;28;20039;-70
2022/09/14 08:02:35;;;;;;;7.97;3.33;;;15.40;99.90;;;;;;5110402;28;20035;-70
2022/09/14 08:05:01;;;;;;;10.95;3.00;;;15.40;99.90;;;;;;5109995;28;20039;-70
2022/09/14 08:07:27;;;;;;;6.30;2.88;;;15.30;99.90;;;;;;5092240;28;20032;-69
2022/09/14 08:09:52;;;;;;;9.20;3.80;;;15.40;99.90;;;;;;5098093;28;20028;-69
2022/09/14 08:12:18;;;;;;;7.60;3.55;;;15.40;99.90;;;;;;5108934;28;20034;-69
2022/09/14 08:14:44;;;;;;;7.32;3.50;;;15.40;99.90;;;;;;5103124;28;20044;-71
2022/09/14 08:17:09;;;;;;;6.57;3.20;;;15.40;99.90;;;;;;5101282;28;20040;-69
2022/09/14 08:19:36;;;;;;;9.35;2.50;;;15.30;99.90;;;;;;5103166;28;20085;-70
2022/09/14 08:22:03;;;;;;;6.40;3.13;;;15.40;99.90;;;;;;5106165;28;20031;-70
2022/09/14 08:24:29;;;;;;;9.80;3.40;;;15.40;99.90;;;;;;5102041;28;20080;-70
2022/09/14 08:26:55;;;;;;;9.27;3.70;;;15.40;99.90;;;;;;5107772;27;20071;-69
2022/09/14 08:29:21;;;;;;;10.43;3.90;;;15.40;99.90;;;;;;5101574;28;20070;-69
2022/09/14 08:31:47;;;;;;;6.85;2.55;;;15.40;99.90;;;;;;5090267;28;20522;-70
2022/09/14 08:34:15;;;;;;;8.98;2.78;;;15.40;99.90;;;;;;5094224;28;20367;-70
2022/09/14 08:36:42;;;;;;;7.03;2.88;;;15.30;99.90;;;;;;5107826;28;20032;-70
2022/09/14 08:39:10;;;;;;;7.10;2.70;;;15.30;99.90;;;;;;5104794;28;20023;-70
2022/09/14 08:41:52;;;;;;;5.55;2.63;;;15.30;99.90;;;;;;5089399;28;20107;-70
2022/09/14 08:44:34;;;;;;;9.77;2.80;;;15.40;99.90;;;;;;5081649;28;20031;-70
2022/09/14 08:47:09;;;;;;;6.88;2.70;;;15.40;99.90;;;;;;5104692;27;20122;-71
2022/09/14 08:49:50;;;;;;;9.32;2.78;;;15.30;99.90;;;;;;5093592;28;20617;-70
2022/09/14 08:52:27;;;;;;;8.00;2.75;;;15.40;99.90;;;;;;5109383;28;20038;-70
2022/09/14 08:54:56;;;;;;;6.22;2.92;;;15.40;99.90;;;;;;5091567;28;20032;-71
2022/09/14 08:57:30;;;;;;;8.02;3.00;;;15.40;99.90;;;;;;5078255;28;20111;-71
2022/09/14 09:00:11;;;;;;;6.47;2.42;;;15.30;99.90;;;;;;5094274;28;20055;-69
2022/09/14 09:03:14;;;;;;;6.63;3.10;;;15.40;99.90;;;;;;5101385;28;20110;-71
2022/09/14 09:06:03;;;;;;;8.10;2.67;;;15.40;99.90;;;;;;5092626;28;20024;-70
2022/09/14 09:08:37;;;;;;;6.80;3.05;;;15.40;99.90;;;;;;5107712;28;20422;-70
2022/09/14 09:11:06;;;;;;;6.45;2.72;;;15.40;99.90;;;;;;5100848;28;20055;-70
2022/09/14 09:13:34;;;;;;;;;;;15.40;99.90;;;;;;5077534;28;20570;-70
2022/09/14 09:16:04;;;;;;;6.55;2.72;;;15.40;99.90;;;;;;5104097;28;19912;-70
2022/09/14 09:19:00;;;;;;;5.50;2.78;;;15.40;99.90;;;;;;5094552;28;20024;-70
2022/09/14 09:21:40;;;;;;;5.60;2.63;;;15.40;99.90;;;;;;5086211;28;20166;-70
2022/09/14 09:24:15;;;;;;;7.57;3.03;;;15.40;99.90;;;;;;5080445;28;20036;-70
2022/09/14 09:26:41;;;;;;;7.28;3.42;;;15.50;99.90;;;;;;5094460;28;20580;-70
2022/09/14 09:29:08;;;;;;;8.52;3.70;;;15.50;99.90;;;;;;5086876;28;20064;-71
2022/09/14 09:31:42;;;;;;;9.30;3.47;;;15.50;99.90;;;;;;5081224;27;20035;-70
2022/09/14 09:34:16;;;;;;;8.82;4.32;;;15.60;99.90;;;;;;5102577;28;20035;-72
2022/09/14 09:36:47;;;;;;;10.38;5.15;;;15.60;99.90;;;;;;5087651;28;20603;-71
2022/09/14 09:39:14;;;;;;;9.88;5.57;;;15.70;99.90;;;;;;5106317;28;20031;-70
2022/09/14 09:41:58;;;;;;;10.07;5.97;;;15.70;99.90;;;;;;5108271;28;20052;-70
2022/09/14 09:44:24;;;;;;;12.45;6.45;;;15.70;99.90;;;;;;5089272;28;20402;-71
2022/09/14 09:46:54;;;;;;;9.73;5.88;;;15.80;99.90;;;;;;5108003;28;20054;-71
2022/09/14 09:49:31;;;;;;;11.02;5.40;;;15.80;99.90;;;;;;5108570;28;20042;-70
2022/09/14 09:52:06;;;;;;;9.48;5.25;;;15.80;99.90;;;;;;5108797;28;20085;-70
2022/09/14 09:54:32;;;;;;;10.68;5.53;;;15.90;99.90;;;;;;5089906;28;20044;-70
2022/09/14 09:57:05;;;;;;;10.68;5.95;;;15.90;99.90;;;;;;5108345;28;20492;-71
2022/09/14 09:59:34;;;;;;;9.52;6.03;;;15.90;99.90;;;;;;5084412;28;20053;-71
2022/09/14 10:02:21;;;;;;;8.65;5.53;;;16.00;99.90;;;;;;5107550;28;20038;-71
2022/09/14 10:05:08;;;;;;;8.20;4.10;;;16.10;99.90;;;;;;5099053;28;20035;-70
2022/09/14 10:07:39;;;;;;;8.75;4.18;;;16.10;99.90;;;;;;5087738;28;20600;-70
2022/09/14 10:10:11;;;;;;;8.60;4.10;;;16.10;99.90;;;;;;5069462;28;20391;-70
2022/09/14 10:12:39;;;;;;;6.53;4.40;;;16.10;99.90;;;;;;5087949;28;20118;-71
2022/09/14 10:15:21;;;;;;;9.25;4.45;;;16.10;99.90;;;;;;5087775;28;20031;-71
2022/09/14 10:18:02;;;;;;;8.15;4.45;;;16.10;99.90;;;;;;5108474;28;20043;-71
2022/09/14 10:20:28;;;;;;;8.40;4.50;;;16.20;99.90;;;;;;5107973;28;20850;-69
2022/09/14 10:22:53;;;;;;;12.18;4.75;;;16.20;99.90;;;;;;5100666;28;20028;-71
2022/09/14 10:25:22;;;;;;;7.32;4.70;;;16.20;99.90;;;;;;5072759;28;20460;-72
2022/09/14 10:27:54;;;;;;;11.05;5.63;;;16.20;99.90;;;;;;5102759;28;20477;-71
2022/09/14 10:30:20;;;;;;;7.38;4.50;;;16.20;99.90;;;;;;5105206;28;20035;-70
2022/09/14 10:33:00;;;;;;;7.63;5.10;;;16.30;99.90;;;;;;5100200;28;20035;-69
2022/09/14 10:35:57;;;;;;;7.13;4.38;;;16.30;99.90;;;;;;5090555;28;20481;-69
2022/09/14 10:38:31;;;;;;;12.13;5.07;;;16.40;99.90;;;;;;5094941;28;20031;-71
2022/09/14 10:41:21;;;;;;;7.55;5.15;;;16.40;99.90;;;;;;5104196;28;20039;-70
2022/09/14 10:44:21;;;;;;;8.68;5.55;;;16.50;99.90;;;;;;5104678;28;20054;-74
2022/09/14 10:46:50;;;;;;;10.07;6.32;;;16.50;99.90;;;;;;5071277;28;20040;-72
2022/09/14 10:49:43;;;;;;;8.77;6.18;;;16.40;99.90;;;;;;5104411;28;20179;-71
2022/09/14 10:52:30;;;;;;;9.63;6.45;;;16.40;99.90;;;;;;5099453;28;20031;-71
2022/09/14 10:55:01;;;;;;;9.13;6.43;;;16.40;99.90;;;;;;5104248;28;20077;-71
2022/09/14 10:57:52;;;;;;;10.85;6.97;;;16.40;99.90;;;;;;5083486;28;20039;-72
2022/09/14 11:00:19;;;;;;;12.73;6.95;;;16.40;99.90;;;;;;5091999;28;20119;-71
2022/09/14 11:03:06;;;;;;;10.93;8.07;;;16.40;99.90;;;;;;5107275;28;20099;-71
2022/09/14 11:05:54;;;;;;;10.35;7.22;;;16.40;99.90;;;;;;5111823;28;20035;-72
2022/09/14 11:08:32;;;;;;;11.40;7.57;;;16.50;99.90;;;;;;5111986;28;20032;-71
2022/09/14 11:11:17;;;;;;;11.15;6.47;;;16.50;99.90;;;;;;5095869;28;20038;-71
2022/09/14 11:13:51;;;;;;;11.18;8.00;;;16.50;99.90;;;;;;5111486;28;20050;-71
2022/09/14 11:16:16;;;;;;;10.20;7.20;;;16.50;99.90;;;;;;5111790;28;20043;-71
2022/09/14 11:18:59;;;;;;;13.80;8.68;;;16.60;99.90;;;;;;5111464;28;20043;-71
2022/09/14 11:21:43;;;;;;;12.48;7.38;;;16.60;99.90;;;;;;5093147;28;20032;-71
2022/09/14 11:24:28;;;;;;;14.43;7.15;;;16.70;99.90;;;;;;5111400;28;20027;-71
2022/09/14 11:27:21;;;;;;;11.15;6.85;;;16.70;99.90;;;;;;5111229;28;20051;-72
2022/09/14 11:30:18;;;;;;;17.23;7.55;;;16.70;99.90;;;;;;5103865;28;20115;-72
2022/09/14 11:32:56;;;;;;;12.45;7.90;;;16.80;99.90;;;;;;5107844;28;20044;-72
2022/09/14 11:35:36;;;;;;;13.93;7.82;;;16.80;99.90;;;;;;5111059;28;20490;-71
2022/09/14 11:38:26;;;;;;;17.05;7.18;;;16.80;99.90;;;;;;5093046;28;20557;-70
2022/09/14 11:41:01;;;;;;;12.50;6.13;;;16.90;99.90;;;;;;5111392;28;20786;-71
2022/09/14 11:43:36;;;;;;;11.88;7.18;;;16.90;99.90;;;;;;5110413;28;20039;-71
2022/09/14 11:46:12;;;;;;;10.05;6.57;;;16.90;99.90;;;;;;5110320;28;20762;-71
2022/09/14 11:49:18;;;;;;;11.88;7.25;;;16.90;99.90;;;;;;5092782;28;20065;-72
2022/09/14 11:52:02;;;;;;;10.00;6.68;;;16.90;99.90;;;;;;5092550;28;20027;-71
2022/09/14 11:54:27;;;;;;;13.60;7.47;;;17.00;99.90;;;;;;5111095;28;20769;-70
2022/09/14 11:57:01;;;;;;;11.85;7.10;;;17.00;99.90;;;;;;5110747;28;20036;-72
2022/09/14 11:59:39;;;;;;;9.90;7.18;;;17.10;99.90;;;;;;5110907;28;20035;-71
2022/09/14 12:02:24;;;;;;;10.73;6.70;;;17.10;99.90;;;;;;5110804;28;20043;-71
2022/09/14 12:05:05;;;;;;;11.55;6.70;;;17.20;99.90;;;;;;5088650;28;20082;-70
2022/09/14 12:07:45;;;;;;;9.93;6.88;;;17.10;99.90;;;;;;5071002;28;20089;-70
2022/09/14 12:10:14;;;;;;;12.48;7.32;;;17.10;99.90;;;;;;5072187;28;20032;-70
2022/09/14 12:12:40;;;;;;;11.50;7.93;;;17.10;99.90;;;;;;5094001;28;20764;-71
2022/09/14 12:15:21;;;;;;;24.17;9.95;;;17.10;99.90;;;;;;5092261;28;20485;-71
2022/09/14 12:17:49;;;;;;;12.25;8.35;;;17.10;99.90;;;;;;5110877;28;20055;-71
2022/09/14 12:20:27;;;;;;;17.60;10.80;;;17.10;99.90;;;;;;5092077;28;20065;-71
2022/09/14 12:23:12;;;;;;;16.77;10.85;;;17.10;99.90;;;;;;5110625;28;20439;-71
2022/09/14 12:25:51;;;;;;;18.52;10.63;;;17.10;99.90;;;;;;5091737;28;20038;-70
2022/09/14 12:28:34;;;;;;;15.05;9.75;;;17.10;99.90;;;;;;5100931;28;20055;-70
2022/09/14 12:31:03;;;;;;;12.65;10.00;;;17.10;99.90;;;;;;5077311;28;20032;-71
2022/09/14 12:33:34;;;;;;;15.02;10.07;;;17.10;99.90;;;;;;5108895;28;20682;-70
2022/09/14 12:36:04;;;;;;;12.80;9.80;;;17.20;99.90;;;;;;5106893;28;20068;-70
2022/09/14 12:38:29;;;;;;;16.45;9.60;;;17.20;99.90;;;;;;5079301;28;20401;-69
2022/09/14 12:40:59;;;;;;;13.18;9.60;;;17.10;99.90;;;;;;5107746;28;20024;-70
2022/09/14 12:43:33;;;;;;;14.55;10.65;;;17.10;99.90;;;;;;5105463;28;20565;-70
2022/09/14 12:46:33;;;;;;;13.75;10.27;;;17.10;99.90;;;;;;5099284;27;20043;-72
2022/09/14 12:49:02;;;;;;;13.60;10.35;;;17.10;99.90;;;;;;5049197;28;20040;-71
2022/09/14 12:51:30;;;;;;;14.80;10.70;;;17.10;99.90;;;;;;5109720;28;20035;-72
2022/09/14 12:54:08;;;;;;;14.50;10.43;;;17.10;99.90;;;;;;5089719;28;20028;-70
2022/09/14 12:57:09;;;;;;;18.08;9.95;;;17.10;99.90;;;;;;5109868;28;20039;-70
2022/09/14 13:00:18;;;;;;;11.75;8.38;;;17.10;99.90;;;;;;5109302;28;20028;-71
2022/09/14 13:03:10;;;;;;;12.97;8.47;;;17.10;99.90;;;;;;5084387;28;20044;-71
2022/09/14 13:05:36;;;;;;;12.43;8.90;;;17.00;99.90;;;;;;5065267;28;20678;-70
2022/09/14 13:08:09;;;;;;;15.77;8.68;;;17.10;99.90;;;;;;5087736;28;20048;-70